createdAt,value
2023-02-26T00:01:38.985Z,2.70
2023-02-26T00:04:07.855Z,2.60
2023-02-26T00:06:38.337Z,2.70
2023-02-26T00:09:06.220Z,2.70
2023-02-26T00:11:34.198Z,2.60
2023-02-26T00:14:01.677Z,2.70
2023-02-26T00:16:35.211Z,2.70
2023-02-26T00:19:05.799Z,2.70
2023-02-26T00:21:34.744Z,2.70
2023-02-26T00:24:02.981Z,2.80
2023-02-26T00:26:31.894Z,2.80
2023-02-26T00:29:00.103Z,2.80
2023-02-26T00:31:28.192Z,2.80
2023-02-26T00:33:57.698Z,2.90
2023-02-26T00:36:36.406Z,2.90
2023-02-26T00:39:28.951Z,2.90
2023-02-26T00:41:56.905Z,2.90
2023-02-26T00:44:24.554Z,3.00
2023-02-26T00:47:05.974Z,2.90
2023-02-26T00:49:49.961Z,3.00
2023-02-26T00:52:29.206Z,2.90
2023-02-26T00:54:56.533Z,3.00
2023-02-26T00:57:24.018Z,3.00
2023-02-26T00:59:51.259Z,3.00
2023-02-26T01:02:20.032Z,3.00
2023-02-26T01:04:48.535Z,3.00
2023-02-26T01:07:20.021Z,3.00
2023-02-26T01:09:47.631Z,3.00
2023-02-26T01:12:17.424Z,3.10
2023-02-26T01:14:47.208Z,3.10
2023-02-26T01:17:32.067Z,3.00
2023-02-26T01:20:07.746Z,3.00
2023-02-26T01:22:38.236Z,3.00
2023-02-26T01:25:16.307Z,2.90
2023-02-26T01:27:43.958Z,2.90
2023-02-26T01:30:11.704Z,2.80
2023-02-26T01:33:05.045Z,2.80
2023-02-26T01:35:55.658Z,2.80
2023-02-26T01:38:52.765Z,2.70
2023-02-26T01:41:40.205Z,2.70
2023-02-26T01:44:10.461Z,2.60
2023-02-26T01:46:52.268Z,2.60
2023-02-26T01:49:20.958Z,2.60
2023-02-26T01:51:54.071Z,2.60
2023-02-26T01:54:24.281Z,2.50
2023-02-26T01:57:12.378Z,2.60
2023-02-26T01:59:43.763Z,2.50
2023-02-26T02:02:13.614Z,2.50
2023-02-26T02:04:41.972Z,2.60
2023-02-26T02:07:09.557Z,2.60
2023-02-26T02:09:37.148Z,2.60
2023-02-26T02:12:33.555Z,2.60
2023-02-26T02:15:10.027Z,2.70
2023-02-26T02:17:46.183Z,2.60
2023-02-26T02:20:47.558Z,2.60
2023-02-26T02:23:21.700Z,2.60
2023-02-26T02:26:07.698Z,2.50
2023-02-26T02:28:59.604Z,2.50
2023-02-26T02:31:49.750Z,2.50
2023-02-26T02:34:33.498Z,2.40
2023-02-26T02:37:29.912Z,2.50
2023-02-26T02:40:07.623Z,2.50
2023-02-26T02:43:04.254Z,2.40
2023-02-26T02:45:31.567Z,2.40
2023-02-26T02:48:09.898Z,2.40
2023-02-26T02:50:47.104Z,2.30
2023-02-26T02:53:20.536Z,2.30
2023-02-26T02:56:05.184Z,2.30
2023-02-26T02:58:42.014Z,2.30
2023-02-26T03:01:14.384Z,2.30
2023-02-26T03:03:52.252Z,2.20
2023-02-26T03:06:19.582Z,2.20
2023-02-26T03:08:51.372Z,2.20
2023-02-26T03:11:19.497Z,2.20
2023-02-26T03:13:49.505Z,2.20
2023-02-26T03:16:30.050Z,2.20
2023-02-26T03:19:04.401Z,2.10
2023-02-26T03:22:03.731Z,2.10
2023-02-26T03:24:52.090Z,2.10
2023-02-26T03:27:47.253Z,2.00
2023-02-26T03:30:18.053Z,2.00
2023-02-26T03:33:06.243Z,2.00
2023-02-26T03:35:42.369Z,2.00
2023-02-26T03:38:16.467Z,2.00
2023-02-26T03:40:55.198Z,2.00
2023-02-26T03:43:27.959Z,2.00
2023-02-26T03:46:02.038Z,2.00
2023-02-26T03:48:31.505Z,2.00
2023-02-26T03:51:04.361Z,1.90
2023-02-26T03:54:03.097Z,1.90
2023-02-26T03:56:41.911Z,1.90
2023-02-26T03:59:16.769Z,1.90
2023-02-26T04:02:11.679Z,1.90
2023-02-26T04:04:45.910Z,1.90
2023-02-26T04:07:15.165Z,1.90
2023-02-26T04:09:43.673Z,1.90
2023-02-26T04:12:11.221Z,1.90
2023-02-26T04:14:42.382Z,1.90
2023-02-26T04:17:09.660Z,1.90
2023-02-26T04:19:37.700Z,1.90
2023-02-26T04:22:05.085Z,1.90
2023-02-26T04:24:32.426Z,1.80
2023-02-26T04:27:02.235Z,1.80
2023-02-26T04:29:30.538Z,1.80
2023-02-26T04:31:58.050Z,1.80
2023-02-26T04:34:25.349Z,1.80
2023-02-26T04:36:53.671Z,1.80
2023-02-26T04:39:21.022Z,1.80
2023-02-26T04:41:48.289Z,1.80
2023-02-26T04:44:15.542Z,1.80
2023-02-26T04:46:44.236Z,1.70
2023-02-26T04:49:12.376Z,1.70
2023-02-26T04:51:43.391Z,1.80
2023-02-26T04:54:12.518Z,1.70
2023-02-26T04:56:39.827Z,1.70
2023-02-26T04:59:07.172Z,1.70
2023-02-26T05:01:35.953Z,1.70
2023-02-26T05:04:05.733Z,1.70
2023-02-26T05:06:33.029Z,1.60
2023-02-26T05:09:00.298Z,1.60
2023-02-26T05:11:27.595Z,1.60
2023-02-26T05:13:54.847Z,1.60
2023-02-26T05:16:22.274Z,1.60
2023-02-26T05:18:49.640Z,1.60
2023-02-26T05:21:18.039Z,1.60
2023-02-26T05:23:45.359Z,1.60
2023-02-26T05:26:12.639Z,1.60
2023-02-26T05:28:39.881Z,1.60
2023-02-26T05:31:07.221Z,1.60
2023-02-26T05:33:35.717Z,1.50
2023-02-26T05:36:02.895Z,1.50
2023-02-26T05:38:30.239Z,1.50
2023-02-26T05:40:58.406Z,1.50
2023-02-26T05:43:26.757Z,1.50
2023-02-26T05:45:55.439Z,1.40
2023-02-26T05:48:23.682Z,1.40
2023-02-26T05:50:51.604Z,1.40
2023-02-26T05:53:19.241Z,1.40
2023-02-26T05:55:46.485Z,1.30
2023-02-26T05:58:13.765Z,1.30
2023-02-26T06:00:40.990Z,1.40
2023-02-26T06:03:08.439Z,1.30
2023-02-26T06:05:36.217Z,1.30
2023-02-26T06:08:05.357Z,1.30
2023-02-26T06:10:32.946Z,1.30
2023-02-26T06:13:00.180Z,1.30
2023-02-26T06:15:27.411Z,1.30
2023-02-26T06:17:54.673Z,1.30
2023-02-26T06:20:22.064Z,1.30
2023-02-26T06:22:49.342Z,1.20
2023-02-26T06:25:16.759Z,1.20
2023-02-26T06:27:44.208Z,1.20
2023-02-26T06:30:12.183Z,1.20
2023-02-26T06:32:39.492Z,1.20
2023-02-26T06:35:07.316Z,1.20
2023-02-26T06:37:34.668Z,1.20
2023-02-26T06:40:02.090Z,1.20
2023-02-26T06:42:29.564Z,1.20
2023-02-26T06:44:57.255Z,1.30
2023-02-26T06:47:24.825Z,1.30
2023-02-26T06:49:52.101Z,1.30
2023-02-26T06:52:19.693Z,1.30
2023-02-26T06:54:46.976Z,1.30
2023-02-26T06:57:14.215Z,1.30
2023-02-26T06:59:41.418Z,1.30
2023-02-26T07:02:16.769Z,1.30
2023-02-26T07:04:44.060Z,1.30
2023-02-26T07:07:12.331Z,1.30
2023-02-26T07:09:39.631Z,1.30
2023-02-26T07:12:10.180Z,1.40
2023-02-26T07:14:37.471Z,1.40
2023-02-26T07:17:04.989Z,1.40
2023-02-26T07:19:32.242Z,1.50
2023-02-26T07:21:59.496Z,1.50
2023-02-26T07:24:26.780Z,1.50
2023-02-26T07:26:54.005Z,1.60
2023-02-26T07:29:21.547Z,1.60
2023-02-26T07:31:49.061Z,1.60
2023-02-26T07:34:16.353Z,1.60
2023-02-26T07:36:43.547Z,1.70
2023-02-26T07:39:11.337Z,1.70
2023-02-26T07:41:38.512Z,1.80
2023-02-26T07:44:14.143Z,1.80
2023-02-26T07:46:41.417Z,1.80
2023-02-26T07:49:09.840Z,1.80
2023-02-26T07:51:37.748Z,1.80
2023-02-26T07:54:05.012Z,1.90
2023-02-26T07:56:32.260Z,1.90
2023-02-26T07:58:59.518Z,1.90
2023-02-26T08:01:26.755Z,2.00
2023-02-26T08:03:54.047Z,2.00
2023-02-26T08:06:21.607Z,2.10
2023-02-26T08:08:48.816Z,2.10
2023-02-26T08:11:16.076Z,2.20
2023-02-26T08:13:43.312Z,2.20
2023-02-26T08:16:10.699Z,2.30
2023-02-26T08:18:38.210Z,2.30
2023-02-26T08:21:05.857Z,2.40
2023-02-26T08:23:33.421Z,2.40
2023-02-26T08:26:05.938Z,2.40
2023-02-26T08:28:33.769Z,2.40
2023-02-26T08:31:01.846Z,2.50
2023-02-26T08:33:30.032Z,2.50
2023-02-26T08:35:59.015Z,2.50
2023-02-26T08:38:27.821Z,2.60
2023-02-26T08:40:55.457Z,2.60
2023-02-26T08:43:22.856Z,2.70
2023-02-26T08:45:52.938Z,2.70
2023-02-26T08:48:20.465Z,2.80
2023-02-26T08:50:48.538Z,2.80
2023-02-26T08:53:16.235Z,2.90
2023-02-26T08:55:44.926Z,2.90
2023-02-26T08:58:12.209Z,2.90
2023-02-26T09:00:39.535Z,3.00
2023-02-26T09:03:06.849Z,3.00
2023-02-26T09:05:34.158Z,3.00
2023-02-26T09:08:01.508Z,3.10
2023-02-26T09:10:29.976Z,3.10
2023-02-26T09:12:57.250Z,3.20
2023-02-26T09:15:24.499Z,3.20
2023-02-26T09:17:52.323Z,3.20
2023-02-26T09:20:19.731Z,3.20
2023-02-26T09:22:47.173Z,3.30
2023-02-26T09:25:15.280Z,3.30
2023-02-26T09:27:42.770Z,3.40
2023-02-26T09:30:11.068Z,3.40
2023-02-26T09:32:38.402Z,3.50
2023-02-26T09:35:06.289Z,3.50
2023-02-26T09:37:33.979Z,3.60
2023-02-26T09:40:01.296Z,3.60
2023-02-26T09:43:02.530Z,3.70
2023-02-26T09:45:39.226Z,3.90
2023-02-26T09:48:08.096Z,4.00
2023-02-26T09:50:46.854Z,4.10
2023-02-26T09:53:40.478Z,4.20
2023-02-26T09:56:15.714Z,4.30
2023-02-26T09:58:44.110Z,4.40
2023-02-26T10:01:18.999Z,4.40
2023-02-26T10:03:58.570Z,4.60
2023-02-26T10:06:38.310Z,4.60
2023-02-26T10:09:39.243Z,4.70
2023-02-26T10:12:24.703Z,4.80
2023-02-26T10:15:13.166Z,4.80
2023-02-26T10:17:52.667Z,4.80
2023-02-26T10:20:42.367Z,4.90
2023-02-26T10:23:21.827Z,5.00
2023-02-26T10:26:12.839Z,5.10
2023-02-26T10:28:48.715Z,5.20
2023-02-26T10:31:43.785Z,5.20
2023-02-26T10:34:17.241Z,5.30
2023-02-26T10:37:09.109Z,5.30
2023-02-26T10:39:48.835Z,5.40
2023-02-26T10:42:25.246Z,5.40
2023-02-26T10:45:01.997Z,5.50
2023-02-26T10:47:44.219Z,5.50
2023-02-26T10:50:14.682Z,5.60
2023-02-26T10:52:45.074Z,5.70
2023-02-26T10:55:38.846Z,5.70
2023-02-26T10:58:14.982Z,5.80
2023-02-26T11:00:45.092Z,5.80
2023-02-26T11:03:19.435Z,5.90
2023-02-26T11:05:48.786Z,5.90
2023-02-26T11:08:23.426Z,6.00
2023-02-26T11:10:59.661Z,6.00
2023-02-26T11:13:29.424Z,6.00
2023-02-26T11:16:00.542Z,5.90
2023-02-26T11:18:36.399Z,5.90
2023-02-26T11:21:06.009Z,5.70
2023-02-26T11:23:34.560Z,5.60
2023-02-26T11:26:07.770Z,5.60
2023-02-26T11:28:36.917Z,5.60
2023-02-26T11:31:11.271Z,5.70
2023-02-26T11:33:41.144Z,5.60
2023-02-26T11:36:18.871Z,5.60
2023-02-26T11:38:53.293Z,5.60
2023-02-26T11:41:22.375Z,5.60
2023-02-26T11:44:02.717Z,5.60
2023-02-26T11:46:30.608Z,5.50
2023-02-26T11:49:01.273Z,5.50
2023-02-26T11:51:29.996Z,5.50
2023-02-26T11:54:02.171Z,5.40
2023-02-26T11:56:39.099Z,5.40
2023-02-26T11:59:20.978Z,5.30
2023-02-26T12:01:50.055Z,5.30
2023-02-26T12:04:23.223Z,5.30
2023-02-26T12:06:52.542Z,5.30
2023-02-26T12:09:21.087Z,5.40
2023-02-26T12:12:12.793Z,5.40
2023-02-26T12:14:53.354Z,5.40
2023-02-26T12:17:32.546Z,5.30
2023-02-26T12:20:35.159Z,5.40
2023-02-26T12:23:31.284Z,5.40
2023-02-26T12:26:17.173Z,5.50
2023-02-26T12:28:56.208Z,5.50
2023-02-26T12:32:21.167Z,5.60
2023-02-26T12:35:18.773Z,5.70
2023-02-26T12:37:58.077Z,5.70
2023-02-26T12:40:52.561Z,5.60
2023-02-26T12:43:35.613Z,5.60
2023-02-26T12:46:08.413Z,5.70
2023-02-26T12:48:41.773Z,5.60
2023-02-26T12:51:41.599Z,5.60
2023-02-26T12:54:20.150Z,5.60
2023-02-26T12:57:02.391Z,5.60
2023-02-26T12:59:47.081Z,5.60
2023-02-26T13:02:37.962Z,5.60
2023-02-26T13:05:42.762Z,5.60
2023-02-26T13:08:30.324Z,5.60
2023-02-26T13:11:24.596Z,5.50
2023-02-26T13:13:58.222Z,5.60
2023-02-26T13:16:37.472Z,5.60
2023-02-26T13:19:45.050Z,5.60
2023-02-26T13:22:18.942Z,5.60
2023-02-26T13:25:05.665Z,5.60
2023-02-26T13:27:37.639Z,5.60
2023-02-26T13:30:10.603Z,5.70
2023-02-26T13:32:39.364Z,5.80
2023-02-26T13:35:18.328Z,6.00
2023-02-26T13:37:52.756Z,6.10
2023-02-26T13:40:29.506Z,6.20
2023-02-26T13:43:14.466Z,6.20
2023-02-26T13:45:53.823Z,6.30
2023-02-26T13:48:39.855Z,6.40
2023-02-26T13:51:44.948Z,6.40
2023-02-26T13:54:14.126Z,6.40
2023-02-26T13:56:50.550Z,6.30
2023-02-26T13:59:44.215Z,6.20
2023-02-26T14:02:20.594Z,6.20
2023-02-26T14:04:58.657Z,6.20
2023-02-26T14:07:46.437Z,6.20
2023-02-26T14:10:46.232Z,6.30
2023-02-26T14:13:21.507Z,6.40
2023-02-26T14:16:08.931Z,6.50
2023-02-26T14:18:40.614Z,6.60
2023-02-26T14:21:26.993Z,6.60
2023-02-26T14:24:39.455Z,6.60
2023-02-26T14:27:12.885Z,6.60
2023-02-26T14:30:00.299Z,6.60
2023-02-26T14:32:31.190Z,6.50
2023-02-26T14:35:22.047Z,6.60
2023-02-26T14:38:05.557Z,6.60
2023-02-26T14:40:39.573Z,6.60
2023-02-26T14:43:18.961Z,6.60
2023-02-26T14:45:47.469Z,6.60
2023-02-26T14:48:19.001Z,6.60
2023-02-26T14:50:49.201Z,6.50
2023-02-26T14:54:15.439Z,6.50
2023-02-26T14:57:38.601Z,6.50
2023-02-26T15:00:38.174Z,6.40
2023-02-26T15:03:27.056Z,6.30
2023-02-26T15:05:54.358Z,6.30
2023-02-26T15:08:34.521Z,6.20
2023-02-26T15:11:14.108Z,6.20
2023-02-26T15:14:10.838Z,6.20
2023-02-26T15:17:02.286Z,6.20
2023-02-26T15:19:38.571Z,6.10
2023-02-26T15:22:18.109Z,6.20
2023-02-26T15:24:46.057Z,6.20
2023-02-26T15:27:17.722Z,6.10
2023-02-26T15:29:47.837Z,6.10
2023-02-26T15:32:25.759Z,6.10
2023-02-26T15:35:22.307Z,6.00
2023-02-26T15:37:53.087Z,6.00
2023-02-26T15:40:21.505Z,6.00
2023-02-26T15:42:55.817Z,6.00
2023-02-26T15:45:40.232Z,6.00
2023-02-26T15:48:27.977Z,6.00
2023-02-26T15:51:00.505Z,5.90
2023-02-26T15:53:32.878Z,6.00
2023-02-26T15:56:04.631Z,5.90
2023-02-26T15:58:43.596Z,5.90
2023-02-26T16:01:20.233Z,5.90
2023-02-26T16:03:50.002Z,5.90
2023-02-26T16:06:24.495Z,5.90
2023-02-26T16:08:52.306Z,5.90
2023-02-26T16:11:21.630Z,5.80
2023-02-26T16:13:51.924Z,5.70
2023-02-26T16:16:27.693Z,5.60
2023-02-26T16:18:56.960Z,5.60
2023-02-26T16:21:33.480Z,5.50
2023-02-26T16:24:02.800Z,5.60
2023-02-26T16:26:36.040Z,5.60
2023-02-26T16:29:14.384Z,5.60
2023-02-26T16:31:44.019Z,5.50
2023-02-26T16:34:37.412Z,5.50
2023-02-26T16:37:36.164Z,5.50
2023-02-26T16:40:41.592Z,5.40
2023-02-26T16:43:40.865Z,5.30
2023-02-26T16:46:11.578Z,5.30
2023-02-26T16:48:55.953Z,5.30
2023-02-26T16:51:25.971Z,5.20
2023-02-26T16:53:58.259Z,5.20
2023-02-26T16:56:31.090Z,5.20
2023-02-26T16:59:24.202Z,5.10
2023-02-26T17:02:18.661Z,5.10
2023-02-26T17:04:50.680Z,5.00
2023-02-26T17:07:28.621Z,5.00
2023-02-26T17:10:09.056Z,5.00
2023-02-26T17:12:49.408Z,4.90
2023-02-26T17:15:29.979Z,5.00
2023-02-26T17:18:00.575Z,4.90
2023-02-26T17:20:30.094Z,4.90
2023-02-26T17:22:59.484Z,4.90
2023-02-26T17:25:34.312Z,4.90
2023-02-26T17:28:02.226Z,4.80
2023-02-26T17:30:33.644Z,4.80
2023-02-26T17:33:04.350Z,4.80
2023-02-26T17:35:31.990Z,4.80
2023-02-26T17:38:00.670Z,4.70
2023-02-26T17:40:34.299Z,4.70
2023-02-26T17:43:03.959Z,4.70
2023-02-26T17:45:33.357Z,4.60
2023-02-26T17:48:01.574Z,4.60
2023-02-26T17:50:49.995Z,4.60
2023-02-26T17:53:19.507Z,4.60
2023-02-26T17:55:49.593Z,4.50
2023-02-26T17:58:22.528Z,4.50
2023-02-26T18:00:53.133Z,4.40
2023-02-26T18:03:21.461Z,4.40
2023-02-26T18:05:50.723Z,4.40
2023-02-26T18:08:25.991Z,4.40
2023-02-26T18:10:54.503Z,4.30
2023-02-26T18:13:22.645Z,4.30
2023-02-26T18:15:51.204Z,4.30
2023-02-26T18:18:20.123Z,4.30
2023-02-26T18:20:47.789Z,4.30
2023-02-26T18:23:16.688Z,4.30
2023-02-26T18:25:46.574Z,4.20
2023-02-26T18:28:28.226Z,4.20
2023-02-26T18:30:57.103Z,4.20
2023-02-26T18:33:25.633Z,4.20
2023-02-26T18:35:56.737Z,4.10
2023-02-26T18:38:27.102Z,4.20
2023-02-26T18:40:55.388Z,4.20
2023-02-26T18:43:22.817Z,4.10
2023-02-26T18:45:52.374Z,4.20
2023-02-26T18:48:20.983Z,4.20
2023-02-26T18:50:49.209Z,4.10
2023-02-26T18:53:17.612Z,4.10
2023-02-26T18:55:45.234Z,4.10
2023-02-26T18:58:13.159Z,4.00
2023-02-26T19:00:41.663Z,4.00
2023-02-26T19:03:09.349Z,4.00
2023-02-26T19:05:37.275Z,4.00
2023-02-26T19:08:05.501Z,4.00
2023-02-26T19:10:34.263Z,3.90
2023-02-26T19:13:02.266Z,3.90
2023-02-26T19:15:30.438Z,3.80
2023-02-26T19:17:57.838Z,3.80
2023-02-26T19:20:25.707Z,3.80
2023-02-26T19:22:53.082Z,3.80
2023-02-26T19:25:24.395Z,3.70
2023-02-26T19:27:53.606Z,3.70
2023-02-26T19:30:22.967Z,3.70
2023-02-26T19:32:51.652Z,3.60
2023-02-26T19:35:19.512Z,3.50
2023-02-26T19:37:46.925Z,3.50
2023-02-26T19:40:19.483Z,3.50
2023-02-26T19:42:48.613Z,3.50
2023-02-26T19:45:17.316Z,3.40
2023-02-26T19:47:45.422Z,3.40
2023-02-26T19:50:14.282Z,3.40
2023-02-26T19:52:41.722Z,3.30
2023-02-26T19:55:09.721Z,3.30
2023-02-26T19:57:37.314Z,3.40
2023-02-26T20:00:06.941Z,3.40
2023-02-26T20:02:40.669Z,3.30
2023-02-26T20:05:11.479Z,3.30
2023-02-26T20:07:39.082Z,3.30
2023-02-26T20:10:07.052Z,3.30
2023-02-26T20:12:34.537Z,3.30
2023-02-26T20:15:02.348Z,3.30
2023-02-26T20:17:29.720Z,3.30
2023-02-26T20:19:57.119Z,3.30
2023-02-26T20:22:24.908Z,3.30
2023-02-26T20:24:52.627Z,3.30
2023-02-26T20:27:19.904Z,3.30
2023-02-26T20:29:47.319Z,3.30
2023-02-26T20:32:14.749Z,3.30
2023-02-26T20:34:42.244Z,3.30
2023-02-26T20:37:10.208Z,3.30
2023-02-26T20:39:37.518Z,3.30
2023-02-26T20:42:09.257Z,3.40
2023-02-26T20:44:37.582Z,3.40
2023-02-26T20:47:06.289Z,3.40
2023-02-26T20:49:33.859Z,3.40
2023-02-26T20:52:01.161Z,3.40
2023-02-26T20:54:28.662Z,3.40
2023-02-26T20:56:56.457Z,3.40
2023-02-26T20:59:23.803Z,3.30
2023-02-26T21:01:54.134Z,3.30
2023-02-26T21:04:21.649Z,3.30
2023-02-26T21:06:49.078Z,3.20
2023-02-26T21:09:16.761Z,3.20
2023-02-26T21:11:44.729Z,3.10
2023-02-26T21:14:12.149Z,3.10
2023-02-26T21:16:42.353Z,3.10
2023-02-26T21:19:09.756Z,3.10
2023-02-26T21:21:37.282Z,3.10
2023-02-26T21:24:05.005Z,3.00
2023-02-26T21:26:34.313Z,3.00
2023-02-26T21:29:02.770Z,3.00
2023-02-26T21:31:30.760Z,3.00
2023-02-26T21:33:58.604Z,3.00
2023-02-26T21:36:27.248Z,2.90
2023-02-26T21:38:54.531Z,3.00
2023-02-26T21:41:22.178Z,3.00
2023-02-26T21:43:49.687Z,3.00
2023-02-26T21:46:17.628Z,3.10
2023-02-26T21:48:46.330Z,3.10
2023-02-26T21:51:15.528Z,3.10
2023-02-26T21:53:45.308Z,3.10
2023-02-26T21:56:12.973Z,3.20
2023-02-26T21:58:40.245Z,3.10
2023-02-26T22:01:07.878Z,3.20
2023-02-26T22:03:35.109Z,3.10
2023-02-26T22:06:02.711Z,3.10
2023-02-26T22:08:30.197Z,3.10
2023-02-26T22:10:57.607Z,3.00
2023-02-26T22:13:24.917Z,3.00
2023-02-26T22:15:52.194Z,3.00
2023-02-26T22:18:19.754Z,3.00
2023-02-26T22:20:47.872Z,3.00
2023-02-26T22:23:15.260Z,3.00
2023-02-26T22:25:42.536Z,3.00
2023-02-26T22:28:09.846Z,2.90
2023-02-26T22:30:37.471Z,2.90
2023-02-26T22:33:05.065Z,3.00
2023-02-26T22:35:32.528Z,2.90
2023-02-26T22:37:59.875Z,2.90
2023-02-26T22:40:27.312Z,2.90
2023-02-26T22:42:54.739Z,2.90
2023-02-26T22:45:22.094Z,2.90
2023-02-26T22:47:50.508Z,2.90
2023-02-26T22:50:18.575Z,2.80
2023-02-26T22:52:45.916Z,2.80
2023-02-26T22:55:13.679Z,2.80
2023-02-26T22:57:41.241Z,2.80
2023-02-26T23:00:14.929Z,2.80
2023-02-26T23:02:42.508Z,2.70
2023-02-26T23:05:10.288Z,2.70
2023-02-26T23:07:39.091Z,2.70
2023-02-26T23:10:11.490Z,2.70
2023-02-26T23:12:39.024Z,2.80
2023-02-26T23:15:10.028Z,2.80
2023-02-26T23:17:38.691Z,2.70
2023-02-26T23:20:10.090Z,2.70
2023-02-26T23:22:37.814Z,2.70
2023-02-26T23:25:05.723Z,2.70
2023-02-26T23:27:33.142Z,2.70
2023-02-26T23:30:00.619Z,2.70
2023-02-26T23:32:28.292Z,2.70
2023-02-26T23:34:55.578Z,2.70
2023-02-26T23:37:23.704Z,2.70
2023-02-26T23:39:53.781Z,2.70
2023-02-26T23:42:21.194Z,2.70
2023-02-26T23:44:49.445Z,2.70
2023-02-26T23:47:16.833Z,2.70
2023-02-26T23:49:44.272Z,2.70
2023-02-26T23:52:11.807Z,2.70
2023-02-26T23:54:40.064Z,2.70
2023-02-26T23:57:08.053Z,2.70
2023-02-26T23:59:35.577Z,2.60
